Time;durP1;ratioP1;P1;durP2;ratioP2;P2;SDS_P1;SDS_P2;PMS_P1;PMS_P2;Temp;Humidity;BMP_temperature;BMP_pressure;BME280_temperature;BME280_humidity;BME280_pressure;Samples;Min_cycle;Max_cycle;Signal;HPM_P1;HPM_P2
2023/01/01 00:02:23;;;;;;;9.32;1.90;;;;;;;;;;5002540;28;20014;-96
2023/01/01 00:04:49;;;;;;;8.40;0.90;;;;;;;;;;5004043;28;20025;-96
2023/01/01 00:07:14;;;;;;;5.97;1.40;;;;;;;;;;5004234;28;20054;-96
2023/01/01 00:12:28;;;;;;;15.68;3.40;;;;;;;;;;5004211;28;20034;-96
2023/01/01 00:14:57;;;;;;;7.40;1.95;;;;;;;;;;5006329;28;20041;-96
2023/01/01 00:17:28;;;;;;;11.15;2.33;;;;;;;;;;5006436;28;20142;-96
2023/01/01 00:20:12;;;;;;;12.00;1.10;;;;;;;;;;5007463;28;20120;-96
2023/01/01 00:22:41;;;;;;;8.30;1.23;;;;;;;;;;5005053;28;20033;-96
2023/01/01 00:25:06;;;;;;;12.65;1.48;;;;;;;;;;5008488;28;20018;-96
2023/01/01 00:28:13;;;;;;;15.65;2.13;;;;;;;;;;5005618;28;20022;-96
2023/01/01 00:30:44;;;;;;;10.32;2.05;;;;;;;;;;5010428;28;20476;-96
2023/01/01 00:33:09;;;;;;;3.38;1.00;;;;;;;;;;5013150;28;20042;-95
2023/01/01 00:35:35;;;;;;;15.85;1.75;;;;;;;;;;5014865;28;20030;-96
2023/01/01 00:38:01;;;;;;;8.25;1.00;;;;;;;;;;5016456;28;20019;-94
2023/01/01 00:40:26;;;;;;;13.10;2.17;;;;;;;;;;5015154;28;20042;-95
2023/01/01 00:42:51;;;;;;;10.55;1.67;;;;;;;;;;5015155;28;20104;-95
2023/01/01 00:45:20;;;;;;;14.77;1.45;;;;;;;;;;5017378;28;20010;-95
2023/01/01 00:47:45;;;;;;;11.80;1.95;;;;;;;;;;5017187;28;20082;-95
2023/01/01 00:50:14;;;;;;;9.48;1.50;;;;;;;;;;5018840;28;20094;-94
2023/01/01 00:56:34;;;;;;;;;;;;;;;;;;;;;
2023/01/01 00:59:31;;;;;;;14.95;2.22;;;;;;;;;;5165734;23;20032;-96
2023/01/01 01:08:08;;;;;;;13.88;2.03;;;;;;;;;;5076864;28;20072;-96
2023/01/01 01:31:14;;;;;;;19.33;3.85;;;;;;;;;;5094913;28;20025;-94
2023/01/01 01:33:42;;;;;;;14.38;3.13;;;;;;;;;;5080061;28;20027;-95
2023/01/01 01:36:11;;;;;;;17.23;2.70;;;;;;;;;;5100446;28;20088;-95
2023/01/01 01:38:39;;;;;;;9.95;2.67;;;;;;;;;;5101567;28;20008;-96
2023/01/01 01:41:05;;;;;;;16.50;2.63;;;;;;;;;;5100986;28;20012;-95
2023/01/01 01:43:33;;;;;;;16.98;2.72;;;;;;;;;;5099904;28;20031;-93
2023/01/01 01:46:13;;;;;;;28.33;2.83;;;;;;;;;;5099238;28;20020;-94
2023/01/01 01:48:41;;;;;;;12.77;2.38;;;;;;;;;;5096640;28;20130;-96
2023/01/01 01:51:06;;;;;;;28.10;3.72;;;;;;;;;;5100076;28;20016;-95
2023/01/01 01:53:32;;;;;;;20.05;2.80;;;;;;;;;;5097623;28;20054;-94
2023/01/01 01:56:08;;;;;;;22.88;3.00;;;;;;;;;;5097976;28;20065;-93
2023/01/01 01:58:33;;;;;;;20.27;2.28;;;;;;;;;;5096890;28;20046;-95
2023/01/01 02:00:59;;;;;;;18.13;3.65;;;;;;;;;;5098789;28;20020;-94
2023/01/01 02:03:43;;;;;;;16.92;3.13;;;;;;;;;;5099506;28;20024;-95
2023/01/01 02:06:09;;;;;;;27.13;3.40;;;;;;;;;;5085610;28;20020;-94
2023/01/01 02:08:34;;;;;;;23.80;2.75;;;;;;;;;;5079189;28;20031;-95
2023/01/01 02:11:00;;;;;;;23.67;2.80;;;;;;;;;;5074546;28;20417;-94
2023/01/01 02:13:25;;;;;;;25.80;3.42;;;;;;;;;;5070498;28;20039;-94
2023/01/01 02:15:58;;;;;;;24.08;3.63;;;;;;;;;;5076172;28;20025;-93
2023/01/01 02:18:26;;;;;;;29.02;3.13;;;;;;;;;;5074395;28;20012;-93
2023/01/01 02:21:06;;;;;;;27.67;4.20;;;;;;;;;;5071747;28;20510;-94
2023/01/01 02:23:35;;;;;;;23.05;3.42;;;;;;;;;;5069950;28;20025;-96
2023/01/01 02:26:00;;;;;;;23.60;3.60;;;;;;;;;;5073654;28;20009;-93
2023/01/01 02:28:31;;;;;;;29.75;3.70;;;;;;;;;;5073255;28;20063;-93
2023/01/01 02:30:58;;;;;;;22.70;3.17;;;;;;;;;;5072953;28;20044;-95
2023/01/01 02:33:24;;;;;;;28.98;3.78;;;;;;;;;;5071616;28;20028;-94
2023/01/01 02:35:54;;;;;;;26.90;4.15;;;;;;;;;;5070163;28;20017;-94
2023/01/01 02:38:24;;;;;;;21.10;3.80;;;;;;;;;;5075020;28;20020;-93
2023/01/01 02:40:53;;;;;;;26.30;3.67;;;;;;;;;;5071158;28;20024;-93
2023/01/01 02:43:19;;;;;;;30.08;5.18;;;;;;;;;;5070973;28;20454;-92
2023/01/01 02:45:44;;;;;;;27.83;3.53;;;;;;;;;;5070790;28;20028;-93
2023/01/01 02:48:28;;;;;;;16.98;2.95;;;;;;;;;;5066413;28;20024;-95
2023/01/01 02:50:56;;;;;;;23.27;4.00;;;;;;;;;;5058482;28;20016;-95
2023/01/01 02:53:29;;;;;;;20.20;3.63;;;;;;;;;;5057727;28;20115;-96
2023/01/01 02:56:01;;;;;;;37.75;4.95;;;;;;;;;;5057778;28;20017;-95
2023/01/01 03:01:38;;;;;;;24.63;3.70;;;;;;;;;;5075596;28;20028;-96
2023/01/01 03:04:10;;;;;;;28.30;4.28;;;;;;;;;;5057628;28;20048;-96
2023/01/01 03:06:43;;;;;;;22.13;3.22;;;;;;;;;;5056165;28;20111;-95
2023/01/01 03:09:17;;;;;;;23.90;4.00;;;;;;;;;;5056173;28;20013;-96
2023/01/01 03:11:57;;;;;;;36.72;5.43;;;;;;;;;;5056618;28;20474;-96
2023/01/01 03:15:01;;;;;;;27.80;5.35;;;;;;;;;;5056141;28;20033;-95
2023/01/01 03:17:34;;;;;;;34.95;5.47;;;;;;;;;;4972841;28;20033;-95
2023/01/01 03:20:03;;;;;;;25.17;5.32;;;;;;;;;;4973038;28;20089;-96
2023/01/01 03:22:31;;;;;;;32.50;4.07;;;;;;;;;;5026503;28;20033;-95
2023/01/01 03:25:07;;;;;;;37.25;3.85;;;;;;;;;;5055871;28;20025;-96
2023/01/01 03:27:38;;;;;;;29.98;5.05;;;;;;;;;;5058130;28;20459;-96
2023/01/01 03:30:09;;;;;;;21.58;3.25;;;;;;;;;;5057927;28;20064;-95
2023/01/01 03:35:25;;;;;;;25.67;3.83;;;;;;;;;;5077057;28;20108;-96
2023/01/01 03:37:52;;;;;;;26.52;3.85;;;;;;;;;;5058049;28;20097;-96
2023/01/01 03:40:19;;;;;;;37.22;4.03;;;;;;;;;;5058152;28;20024;-95
2023/01/01 03:42:48;;;;;;;30.35;3.45;;;;;;;;;;5057610;28;20021;-96
2023/01/01 03:45:19;;;;;;;17.98;2.55;;;;;;;;;;5057445;28;20024;-95
2023/01/01 03:47:44;;;;;;;22.70;5.60;;;;;;;;;;5057982;28;20017;-95
2023/01/01 03:50:10;;;;;;;23.25;3.47;;;;;;;;;;5057489;28;20024;-94
2023/01/01 03:52:56;;;;;;;19.15;3.05;;;;;;;;;;5057170;28;20036;-96
2023/01/01 03:55:30;;;;;;;20.17;3.00;;;;;;;;;;5057582;28;20501;-96
2023/01/01 03:58:04;;;;;;;21.90;4.05;;;;;;;;;;5057116;28;20027;-95
2023/01/01 04:00:32;;;;;;;17.73;3.13;;;;;;;;;;5057991;28;20020;-95
2023/01/01 04:02:59;;;;;;;17.27;3.10;;;;;;;;;;5057396;28;20009;-95
2023/01/01 04:05:25;;;;;;;10.48;2.30;;;;;;;;;;5057484;28;20025;-95
2023/01/01 04:07:51;;;;;;;13.30;2.28;;;;;;;;;;5057397;28;20385;-96
2023/01/01 04:10:17;;;;;;;15.80;2.08;;;;;;;;;;5056418;28;20017;-96
2023/01/01 04:12:52;;;;;;;11.75;1.90;;;;;;;;;;5055857;28;20033;-95
2023/01/01 04:15:19;;;;;;;13.43;2.22;;;;;;;;;;5056991;28;20017;-96
2023/01/01 04:17:45;;;;;;;10.70;1.65;;;;;;;;;;5056293;28;20091;-94
2023/01/01 04:20:10;;;;;;;16.52;2.47;;;;;;;;;;5059061;28;20028;-95
2023/01/01 04:22:36;;;;;;;14.20;2.20;;;;;;;;;;5060132;28;20021;-95
2023/01/01 04:25:02;;;;;;;13.52;1.55;;;;;;;;;;5060720;28;20069;-95
2023/01/01 04:27:27;;;;;;;12.95;1.48;;;;;;;;;;5060373;28;20027;-94
2023/01/01 04:29:52;;;;;;;12.88;1.70;;;;;;;;;;5059967;28;20390;-94
2023/01/01 04:32:18;;;;;;;10.02;1.63;;;;;;;;;;5060159;28;20031;-95
2023/01/01 04:34:43;;;;;;;10.13;1.25;;;;;;;;;;5077357;28;20031;-96
2023/01/01 04:37:08;;;;;;;12.88;1.77;;;;;;;;;;5059706;28;20020;-96
2023/01/01 04:39:33;;;;;;;9.85;1.50;;;;;;;;;;5059637;28;20029;-95
2023/01/01 04:41:59;;;;;;;10.80;1.55;;;;;;;;;;5059139;28;20074;-95
2023/01/01 04:44:24;;;;;;;9.35;1.40;;;;;;;;;;5077318;28;20023;-96
2023/01/01 04:46:49;;;;;;;9.95;1.80;;;;;;;;;;5059606;28;20067;-95
2023/01/01 04:49:15;;;;;;;13.82;2.00;;;;;;;;;;5059181;28;20013;-95
2023/01/01 04:51:40;;;;;;;4.75;1.13;;;;;;;;;;5058818;28;20020;-96
2023/01/01 04:54:05;;;;;;;7.82;1.08;;;;;;;;;;5058890;28;20029;-95
2023/01/01 04:56:31;;;;;;;7.88;1.40;;;;;;;;;;5059086;28;20013;-95
2023/01/01 04:58:57;;;;;;;11.35;1.10;;;;;;;;;;5058995;28;20027;-96
2023/01/01 05:01:24;;;;;;;5.88;1.00;;;;;;;;;;5058634;28;20440;-96
2023/01/01 05:03:49;;;;;;;6.60;0.98;;;;;;;;;;5058835;28;20046;-95
2023/01/01 05:06:15;;;;;;;6.88;1.00;;;;;;;;;;5058627;28;20526;-95
2023/01/01 05:08:42;;;;;;;7.38;1.75;;;;;;;;;;5058298;28;20044;-95
2023/01/01 05:11:09;;;;;;;7.85;1.10;;;;;;;;;;5058917;28;20024;-95
2023/01/01 05:13:36;;;;;;;12.05;1.30;;;;;;;;;;5076508;28;20077;-96
2023/01/01 05:16:05;;;;;;;10.90;1.42;;;;;;;;;;5058422;28;20078;-95
2023/01/01 05:18:30;;;;;;;8.02;1.77;;;;;;;;;;5058150;28;20046;-95
2023/01/01 05:21:03;;;;;;;7.25;1.23;;;;;;;;;;5059111;28;20542;-94
2023/01/01 05:23:29;;;;;;;7.80;1.42;;;;;;;;;;5059260;28;20024;-96
2023/01/01 05:25:54;;;;;;;12.85;1.52;;;;;;;;;;5059201;28;20017;-94
2023/01/01 05:28:20;;;;;;;14.20;1.85;;;;;;;;;;5059350;28;20024;-95
2023/01/01 05:30:45;;;;;;;9.63;1.80;;;;;;;;;;5059452;28;20359;-95
2023/01/01 05:33:11;;;;;;;13.70;2.83;;;;;;;;;;5059352;28;20028;-96
2023/01/01 05:35:37;;;;;;;16.95;2.30;;;;;;;;;;5059525;28;20047;-94
2023/01/01 05:38:03;;;;;;;18.20;2.10;;;;;;;;;;5059507;28;20020;-94
2023/01/01 05:40:29;;;;;;;15.32;3.05;;;;;;;;;;5058791;28;20058;-95
2023/01/01 05:42:54;;;;;;;13.73;1.80;;;;;;;;;;5058933;28;20017;-96
2023/01/01 05:45:20;;;;;;;26.25;3.55;;;;;;;;;;5060049;28;20020;-96
2023/01/01 05:47:48;;;;;;;20.00;3.10;;;;;;;;;;5066234;28;20016;-96
2023/01/01 05:50:34;;;;;;;;;;;;;;;;;;;;;
2023/01/01 05:58:49;;;;;;;21.92;3.50;;;;;;;;;;5257320;22;20091;-96
2023/01/01 06:01:25;;;;;;;;;;;;;;;;;;;;;
2023/01/01 06:03:56;;;;;;;31.42;3.58;;;;;;;;;;5061637;28;20096;-96
2023/01/01 06:06:27;;;;;;;25.65;4.45;;;;;;;;;;5041761;28;20021;-96
2023/01/01 06:08:57;;;;;;;23.42;3.58;;;;;;;;;;5040641;28;20371;-96
2023/01/01 06:11:22;;;;;;;30.73;4.20;;;;;;;;;;5040781;28;20043;-96
2023/01/01 06:13:50;;;;;;;29.10;3.38;;;;;;;;;;5040630;28;20096;-96
2023/01/01 06:16:16;;;;;;;22.52;3.17;;;;;;;;;;5039501;28;20083;-96
2023/01/01 06:18:41;;;;;;;28.45;3.38;;;;;;;;;;5041028;28;20471;-96
2023/01/01 06:21:11;;;;;;;24.17;3.13;;;;;;;;;;5040107;28;20365;-96
2023/01/01 06:23:37;;;;;;;24.17;3.58;;;;;;;;;;5038425;28;20498;-96
2023/01/01 06:26:05;;;;;;;34.47;3.40;;;;;;;;;;5038039;28;20021;-96
2023/01/01 06:28:30;;;;;;;36.65;4.15;;;;;;;;;;5038289;28;20487;-96
2023/01/01 06:30:58;;;;;;;30.85;4.68;;;;;;;;;;5038347;28;20040;-96
2023/01/01 06:33:23;;;;;;;18.42;2.95;;;;;;;;;;5038445;28;20040;-95
2023/01/01 06:35:49;;;;;;;31.08;3.40;;;;;;;;;;5037982;28;20025;-96
2023/01/01 06:38:14;;;;;;;39.50;4.60;;;;;;;;;;5037947;28;20422;-96
2023/01/01 06:40:39;;;;;;;25.00;3.80;;;;;;;;;;5037057;28;20040;-96
2023/01/01 06:43:05;;;;;;;29.65;4.38;;;;;;;;;;5038260;28;20025;-95
2023/01/01 06:45:30;;;;;;;27.52;4.82;;;;;;;;;;5038198;28;20058;-96
2023/01/01 06:47:56;;;;;;;29.95;3.30;;;;;;;;;;5040253;28;20036;-96
2023/01/01 06:50:21;;;;;;;32.67;3.97;;;;;;;;;;5039462;28;20031;-96
2023/01/01 06:52:47;;;;;;;34.72;4.55;;;;;;;;;;5037638;28;20028;-95
2023/01/01 06:55:12;;;;;;;25.77;4.20;;;;;;;;;;5037428;28;20044;-96
2023/01/01 06:57:37;;;;;;;32.10;3.53;;;;;;;;;;5037758;28;20075;-95
2023/01/01 07:00:03;;;;;;;30.92;4.40;;;;;;;;;;5036507;28;20035;-97
2023/01/01 07:02:29;;;;;;;31.10;3.83;;;;;;;;;;5036189;28;20048;-96
2023/01/01 07:04:54;;;;;;;32.17;3.60;;;;;;;;;;5036740;28;20112;-96
2023/01/01 07:07:19;;;;;;;21.02;3.55;;;;;;;;;;5036672;28;20497;-96
2023/01/01 07:09:45;;;;;;;33.67;4.82;;;;;;;;;;5037195;28;20051;-95
2023/01/01 07:12:10;;;;;;;27.17;3.10;;;;;;;;;;5036866;28;20119;-95
2023/01/01 07:14:35;;;;;;;32.80;4.78;;;;;;;;;;5036506;28;20033;-95
2023/01/01 07:17:01;;;;;;;26.17;3.28;;;;;;;;;;5036277;28;20032;-95
2023/01/01 07:19:26;;;;;;;26.73;4.25;;;;;;;;;;5036670;28;20052;-95
2023/01/01 07:21:53;;;;;;;13.68;2.60;;;;;;;;;;5037603;28;20023;-95
2023/01/01 07:24:18;;;;;;;36.45;4.05;;;;;;;;;;5036952;28;20386;-96
2023/01/01 07:26:43;;;;;;;28.40;3.67;;;;;;;;;;5037128;28;20084;-96
2023/01/01 07:29:09;;;;;;;25.38;3.50;;;;;;;;;;5036655;28;20028;-96
2023/01/01 07:31:35;;;;;;;20.50;3.13;;;;;;;;;;5036880;28;20025;-96
2023/01/01 07:34:00;;;;;;;21.48;3.38;;;;;;;;;;5036700;28;20029;-95
2023/01/01 07:36:26;;;;;;;26.88;3.15;;;;;;;;;;5037187;28;20025;-96
2023/01/01 07:38:51;;;;;;;32.83;4.28;;;;;;;;;;5037590;28;20506;-96
2023/01/01 07:41:16;;;;;;;19.88;2.88;;;;;;;;;;5037416;28;20020;-96
2023/01/01 07:43:42;;;;;;;20.65;2.95;;;;;;;;;;5036949;28;20024;-96
2023/01/01 07:46:09;;;;;;;21.05;2.90;;;;;;;;;;5036508;28;20045;-96
2023/01/01 07:48:35;;;;;;;26.00;4.22;;;;;;;;;;5036920;28;20185;-95
2023/01/01 07:51:00;;;;;;;29.95;3.50;;;;;;;;;;5036671;28;20019;-96
2023/01/01 07:53:25;;;;;;;30.10;3.88;;;;;;;;;;5038711;28;20064;-95
2023/01/01 07:55:50;;;;;;;23.42;2.70;;;;;;;;;;5039892;28;20021;-96
2023/01/01 07:58:16;;;;;;;29.02;4.70;;;;;;;;;;5039930;28;20033;-96
2023/01/01 08:00:44;;;;;;;31.75;4.35;;;;;;;;;;5040557;28;20540;-96
2023/01/01 08:03:09;;;;;;;25.52;3.58;;;;;;;;;;5039885;28;20390;-95
2023/01/01 08:05:36;;;;;;;23.50;2.85;;;;;;;;;;5039768;28;20025;-95
2023/01/01 08:08:01;;;;;;;24.08;3.15;;;;;;;;;;5039703;28;20108;-96
2023/01/01 08:10:27;;;;;;;33.63;4.03;;;;;;;;;;5039924;28;20087;-96
2023/01/01 08:12:58;;;;;;;22.50;3.17;;;;;;;;;;5040437;28;20033;-96
2023/01/01 08:15:23;;;;;;;23.35;3.95;;;;;;;;;;5039724;28;20021;-96
2023/01/01 08:17:48;;;;;;;36.47;4.22;;;;;;;;;;5040030;28;20083;-96
2023/01/01 08:20:14;;;;;;;24.60;3.05;;;;;;;;;;5040279;28;20017;-96
2023/01/01 08:22:39;;;;;;;22.45;3.72;;;;;;;;;;5040494;28;20044;-95
2023/01/01 08:25:05;;;;;;;21.55;3.63;;;;;;;;;;5040442;28;20438;-95
2023/01/01 08:27:30;;;;;;;26.98;3.80;;;;;;;;;;5040559;28;20414;-95
2023/01/01 08:29:55;;;;;;;32.58;3.95;;;;;;;;;;5040769;28;20503;-95
2023/01/01 08:32:21;;;;;;;20.50;4.22;;;;;;;;;;5039602;28;20483;-96
2023/01/01 08:34:46;;;;;;;20.75;3.30;;;;;;;;;;5039341;28;20021;-95
2023/01/01 08:37:14;;;;;;;26.83;4.45;;;;;;;;;;5039166;28;20017;-94
2023/01/01 08:39:40;;;;;;;35.67;4.93;;;;;;;;;;5039721;28;20021;-94
2023/01/01 08:42:05;;;;;;;27.83;3.33;;;;;;;;;;5038575;28;20028;-95
2023/01/01 08:44:31;;;;;;;18.70;3.60;;;;;;;;;;5039730;28;20108;-95
2023/01/01 08:46:56;;;;;;;24.05;3.92;;;;;;;;;;5039357;28;20112;-94
2023/01/01 08:49:21;;;;;;;19.33;3.50;;;;;;;;;;5039909;28;20778;-95
2023/01/01 08:51:47;;;;;;;31.27;3.70;;;;;;;;;;5039481;28;20410;-96
2023/01/01 08:54:12;;;;;;;29.17;4.35;;;;;;;;;;5038619;28;20025;-96
2023/01/01 08:56:37;;;;;;;31.73;3.75;;;;;;;;;;5037402;28;20013;-95
2023/01/01 08:59:03;;;;;;;32.72;4.13;;;;;;;;;;5037011;28;20087;-94
2023/01/01 09:01:28;;;;;;;34.38;4.18;;;;;;;;;;5037139;28;20027;-94
2023/01/01 09:03:53;;;;;;;31.90;4.00;;;;;;;;;;5036445;28;20387;-95
2023/01/01 09:06:19;;;;;;;31.65;4.95;;;;;;;;;;5038515;28;20044;-94
2023/01/01 09:08:44;;;;;;;32.92;4.72;;;;;;;;;;5041883;28;20028;-95
2023/01/01 09:11:21;;;;;;;41.35;4.63;;;;;;;;;;5038650;28;20024;-95
2023/01/01 09:13:46;;;;;;;39.67;5.70;;;;;;;;;;5036803;28;20067;-95
2023/01/01 09:16:12;;;;;;;31.35;4.32;;;;;;;;;;5036589;28;20108;-94
2023/01/01 09:18:37;;;;;;;37.95;4.75;;;;;;;;;;5036691;28;20021;-93
2023/01/01 09:21:05;;;;;;;44.70;6.40;;;;;;;;;;5054354;28;20017;-94
2023/01/01 09:23:30;;;;;;;39.47;5.00;;;;;;;;;;5036796;28;20029;-93
2023/01/01 09:25:57;;;;;;;39.13;5.97;;;;;;;;;;5036301;28;20016;-93
2023/01/01 09:28:22;;;;;;;28.98;4.75;;;;;;;;;;5036650;28;20025;-94
2023/01/01 09:30:47;;;;;;;37.22;6.68;;;;;;;;;;5036651;28;20071;-93
2023/01/01 09:33:13;;;;;;;39.40;5.97;;;;;;;;;;5036445;28;20029;-96
2023/01/01 09:35:38;;;;;;;32.03;4.32;;;;;;;;;;5036372;28;20013;-95
2023/01/01 09:38:03;;;;;;;34.17;5.63;;;;;;;;;;5036588;28;20035;-95
2023/01/01 09:40:28;;;;;;;45.63;5.60;;;;;;;;;;5036130;28;20115;-94
2023/01/01 09:43:14;;;;;;;37.15;7.03;;;;;;;;;;5036240;28;20013;-95
2023/01/01 09:45:55;;;;;;;40.97;5.65;;;;;;;;;;5005771;28;20048;-94
2023/01/01 09:48:20;;;;;;;39.45;6.05;;;;;;;;;;5036206;28;20032;-96
2023/01/01 09:50:46;;;;;;;36.38;5.32;;;;;;;;;;5036133;28;20021;-94
2023/01/01 09:53:11;;;;;;;37.55;5.10;;;;;;;;;;5036083;28;20040;-94
2023/01/01 09:55:43;;;;;;;39.35;6.30;;;;;;;;;;5035783;28;20067;-93
2023/01/01 09:58:09;;;;;;;34.55;4.60;;;;;;;;;;5035765;28;20036;-95
2023/01/01 10:00:36;;;;;;;36.83;4.70;;;;;;;;;;5036058;28;20021;-94
2023/01/01 10:03:17;;;;;;;35.08;5.05;;;;;;;;;;5035982;28;20021;-94
2023/01/01 10:05:48;;;;;;;39.13;4.65;;;;;;;;;;5035761;28;20592;-95
2023/01/01 10:08:32;;;;;;;45.90;6.55;;;;;;;;;;5035625;28;20037;-95
2023/01/01 10:11:18;;;;;;;31.17;5.03;;;;;;;;;;5035572;28;20021;-95
2023/01/01 10:13:44;;;;;;;35.13;4.35;;;;;;;;;;5021681;28;20036;-95
2023/01/01 10:16:27;;;;;;;33.35;4.80;;;;;;;;;;5034797;28;20021;-94
2023/01/01 10:18:54;;;;;;;36.90;5.78;;;;;;;;;;5036049;28;20079;-95
2023/01/01 10:21:29;;;;;;;37.58;5.13;;;;;;;;;;5035747;28;20029;-95
2023/01/01 10:23:56;;;;;;;32.92;4.85;;;;;;;;;;5035752;28;20021;-95
2023/01/01 10:26:23;;;;;;;33.63;5.47;;;;;;;;;;5036022;28;20176;-96
2023/01/01 10:28:53;;;;;;;32.30;4.90;;;;;;;;;;5036579;28;20131;-96
2023/01/01 10:31:24;;;;;;;49.83;7.85;;;;;;;;;;5036218;28;20017;-95
2023/01/01 10:33:49;;;;;;;33.40;5.72;;;;;;;;;;5036867;28;20067;-95
2023/01/01 10:36:16;;;;;;;37.67;5.47;;;;;;;;;;5036221;28;20021;-96
2023/01/01 10:38:42;;;;;;;32.10;5.10;;;;;;;;;;5036695;28;20021;-95
2023/01/01 10:41:08;;;;;;;33.58;5.22;;;;;;;;;;5036904;28;20017;-95
2023/01/01 10:43:34;;;;;;;36.88;5.72;;;;;;;;;;5036167;28;20025;-96
2023/01/01 10:46:01;;;;;;;40.88;7.75;;;;;;;;;;5036451;28;20009;-94
2023/01/01 10:48:27;;;;;;;33.72;5.75;;;;;;;;;;5035942;28;20017;-95
2023/01/01 10:50:56;;;;;;;37.60;6.40;;;;;;;;;;5036128;28;20474;-95
2023/01/01 10:53:33;;;;;;;33.45;6.28;;;;;;;;;;5036934;28;20032;-95
2023/01/01 10:56:04;;;;;;;42.40;6.88;;;;;;;;;;5036495;28;20036;-96
2023/01/01 10:58:33;;;;;;;31.60;6.22;;;;;;;;;;5036370;28;20032;-95
2023/01/01 11:00:59;;;;;;;41.42;6.22;;;;;;;;;;5036569;28;20017;-96
2023/01/01 11:03:24;;;;;;;31.65;5.60;;;;;;;;;;5036421;28;20021;-95
2023/01/01 11:06:02;;;;;;;27.88;4.53;;;;;;;;;;5035678;28;20479;-95
2023/01/01 11:08:28;;;;;;;32.63;5.53;;;;;;;;;;5036273;28;20432;-96
2023/01/01 11:10:56;;;;;;;34.20;5.22;;;;;;;;;;5036043;28;20052;-95
2023/01/01 11:13:21;;;;;;;38.85;6.68;;;;;;;;;;5036745;28;20021;-95
2023/01/01 11:15:47;;;;;;;35.80;5.85;;;;;;;;;;5036456;28;20487;-96
2023/01/01 11:18:34;;;;;;;40.30;7.00;;;;;;;;;;5036040;28;20108;-96
2023/01/01 11:21:01;;;;;;;33.08;5.32;;;;;;;;;;5036279;28;20087;-96
2023/01/01 11:23:31;;;;;;;34.05;5.80;;;;;;;;;;5036493;28;20025;-95
2023/01/01 11:25:57;;;;;;;37.75;5.65;;;;;;;;;;5036661;28;20048;-95
2023/01/01 11:28:23;;;;;;;42.55;5.82;;;;;;;;;;5038971;28;20020;-95
2023/01/01 11:31:00;;;;;;;40.95;6.18;;;;;;;;;;5040038;28;20021;-96
2023/01/01 11:33:26;;;;;;;29.67;4.35;;;;;;;;;;5039856;28;20120;-96
2023/01/01 11:35:55;;;;;;;34.10;5.95;;;;;;;;;;5040140;28;20048;-96
2023/01/01 11:38:21;;;;;;;24.73;4.25;;;;;;;;;;5040168;28;20031;-96
2023/01/01 11:40:48;;;;;;;36.20;5.32;;;;;;;;;;5040127;28;20021;-95
2023/01/01 11:43:17;;;;;;;27.05;4.35;;;;;;;;;;5057701;28;20486;-95
2023/01/01 11:45:43;;;;;;;31.38;5.00;;;;;;;;;;5039974;28;20470;-95
2023/01/01 11:48:13;;;;;;;33.10;4.85;;;;;;;;;;5040172;28;20020;-96
2023/01/01 11:50:39;;;;;;;29.75;4.90;;;;;;;;;;5039739;28;20071;-95
2023/01/01 11:53:19;;;;;;;32.38;4.80;;;;;;;;;;5039384;28;20029;-95
2023/01/01 11:55:49;;;;;;;32.80;5.85;;;;;;;;;;5040128;28;20025;-96
2023/01/01 11:58:22;;;;;;;37.20;5.28;;;;;;;;;;5038972;28;20387;-95
2023/01/01 12:00:49;;;;;;;31.98;4.55;;;;;;;;;;5038713;28;20474;-95
2023/01/01 12:03:22;;;;;;;32.15;4.65;;;;;;;;;;5039038;28;20025;-96
2023/01/01 12:05:55;;;;;;;30.10;5.05;;;;;;;;;;5039211;28;20071;-96
2023/01/01 12:08:24;;;;;;;28.67;5.82;;;;;;;;;;5038864;28;20040;-95
2023/01/01 12:10:51;;;;;;;35.50;5.28;;;;;;;;;;5039074;28;20155;-95
2023/01/01 12:13:19;;;;;;;43.60;6.32;;;;;;;;;;5039112;28;20586;-96
2023/01/01 12:15:51;;;;;;;29.65;4.25;;;;;;;;;;5038644;28;20029;-96
2023/01/01 12:18:23;;;;;;;34.28;5.13;;;;;;;;;;5038969;28;20028;-96
2023/01/01 12:20:53;;;;;;;34.00;4.88;;;;;;;;;;5037907;28;20025;-96
2023/01/01 12:23:19;;;;;;;30.65;4.85;;;;;;;;;;5038184;28;20112;-96
2023/01/01 12:25:48;;;;;;;25.33;3.55;;;;;;;;;;5038694;28;20052;-96
2023/01/01 12:28:34;;;;;;;24.08;5.15;;;;;;;;;;5038334;28;20025;-95
2023/01/01 12:31:05;;;;;;;29.45;4.15;;;;;;;;;;5056050;28;20023;-95
2023/01/01 12:33:43;;;;;;;24.40;4.88;;;;;;;;;;5038239;28;20399;-95
2023/01/01 12:36:15;;;;;;;29.83;3.78;;;;;;;;;;5038524;28;20083;-95
2023/01/01 12:38:59;;;;;;;34.58;5.50;;;;;;;;;;5037810;28;20027;-96
2023/01/01 12:41:30;;;;;;;28.92;4.15;;;;;;;;;;5038838;28;20017;-95
2023/01/01 12:44:04;;;;;;;30.92;4.95;;;;;;;;;;5038753;28;20021;-95
2023/01/01 12:46:33;;;;;;;32.00;5.55;;;;;;;;;;5037906;28;20025;-94
2023/01/01 12:49:01;;;;;;;37.22;5.18;;;;;;;;;;5038714;28;20017;-96
2023/01/01 12:51:45;;;;;;;40.72;6.32;;;;;;;;;;5038074;28;20020;-95
2023/01/01 12:54:10;;;;;;;35.60;5.15;;;;;;;;;;5038298;28;20507;-96
2023/01/01 12:56:42;;;;;;;36.13;5.38;;;;;;;;;;5038282;28;20021;-95
2023/01/01 12:59:13;;;;;;;35.17;4.95;;;;;;;;;;5037951;28;20028;-95
2023/01/01 13:01:39;;;;;;;40.30;4.65;;;;;;;;;;5038079;28;20025;-95
2023/01/01 13:04:06;;;;;;;32.60;4.90;;;;;;;;;;5037867;28;20058;-96
2023/01/01 13:06:36;;;;;;;35.50;5.40;;;;;;;;;;5038068;28;20490;-96
2023/01/01 13:09:05;;;;;;;27.85;4.72;;;;;;;;;;5037657;28;20020;-95
2023/01/01 13:11:31;;;;;;;29.40;5.50;;;;;;;;;;5037458;28;20021;-95
2023/01/01 13:13:57;;;;;;;35.80;5.15;;;;;;;;;;5037787;28;20167;-94
2023/01/01 13:16:35;;;;;;;37.80;5.95;;;;;;;;;;5037218;28;20502;-95
2023/01/01 13:19:00;;;;;;;30.77;5.85;;;;;;;;;;5037408;28;20028;-94
2023/01/01 13:21:27;;;;;;;34.03;7.10;;;;;;;;;;5037290;28;20023;-96
2023/01/01 13:23:53;;;;;;;44.30;6.25;;;;;;;;;;5036966;28;20108;-95
2023/01/01 13:26:21;;;;;;;46.60;5.32;;;;;;;;;;5036840;28;20017;-95
2023/01/01 13:28:50;;;;;;;41.55;6.15;;;;;;;;;;5036855;28;20375;-95
2023/01/01 13:31:15;;;;;;;39.45;6.10;;;;;;;;;;5036676;28;20017;-95
2023/01/01 13:33:40;;;;;;;39.45;5.38;;;;;;;;;;5036862;28;20055;-95
2023/01/01 13:36:06;;;;;;;55.15;7.72;;;;;;;;;;5036388;28;20021;-95
2023/01/01 13:38:50;;;;;;;42.70;6.32;;;;;;;;;;5036410;28;20017;-96
2023/01/01 13:41:35;;;;;;;46.33;6.95;;;;;;;;;;5036242;28;20452;-94
2023/01/01 13:44:01;;;;;;;39.45;6.07;;;;;;;;;;5036162;28;20485;-95
2023/01/01 13:46:50;;;;;;;31.80;5.65;;;;;;;;;;5036413;28;20091;-95
2023/01/01 13:49:34;;;;;;;39.25;6.43;;;;;;;;;;5036202;28;20021;-94
2023/01/01 13:52:08;;;;;;;42.55;7.55;;;;;;;;;;5036076;28;20024;-94
2023/01/01 13:54:53;;;;;;;46.72;7.05;;;;;;;;;;5036514;28;20033;-94
2023/01/01 13:57:38;;;;;;;41.33;6.60;;;;;;;;;;5020093;28;20143;-94
2023/01/01 14:00:13;;;;;;;39.15;6.15;;;;;;;;;;5036456;28;20079;-94
2023/01/01 14:02:45;;;;;;;46.80;6.47;;;;;;;;;;5036452;28;20488;-94
2023/01/01 14:05:15;;;;;;;38.90;5.80;;;;;;;;;;5036882;28;20107;-95
2023/01/01 14:07:43;;;;;;;45.00;5.97;;;;;;;;;;5036240;28;20020;-95
2023/01/01 14:10:11;;;;;;;48.72;7.13;;;;;;;;;;5036494;28;20156;-95
2023/01/01 14:12:37;;;;;;;42.78;7.22;;;;;;;;;;5036720;28;20471;-95
2023/01/01 14:15:13;;;;;;;43.28;6.15;;;;;;;;;;5036678;28;20032;-95
2023/01/01 14:17:39;;;;;;;34.58;7.45;;;;;;;;;;5036672;28;20013;-96
2023/01/01 14:20:06;;;;;;;49.85;7.28;;;;;;;;;;5036620;28;20021;-95
2023/01/01 14:22:31;;;;;;;32.33;5.63;;;;;;;;;;5036275;28;20013;-95
2023/01/01 14:24:57;;;;;;;33.88;5.95;;;;;;;;;;5036148;28;20024;-95
2023/01/01 14:27:22;;;;;;;44.05;6.90;;;;;;;;;;5036560;28;20493;-95
2023/01/01 14:29:48;;;;;;;29.23;4.68;;;;;;;;;;5036536;28;20068;-95
2023/01/01 14:32:19;;;;;;;44.92;5.93;;;;;;;;;;5036451;28;20021;-96
2023/01/01 14:34:44;;;;;;;41.83;5.78;;;;;;;;;;5036007;28;20036;-95
2023/01/01 14:37:38;;;;;;;40.63;6.70;;;;;;;;;;5036149;28;20012;-95
2023/01/01 14:40:04;;;;;;;44.13;7.13;;;;;;;;;;5033610;28;20576;-94
2023/01/01 14:42:30;;;;;;;43.53;6.05;;;;;;;;;;5035829;28;20124;-94
2023/01/01 14:44:56;;;;;;;44.13;6.60;;;;;;;;;;5036215;28;20064;-95
2023/01/01 14:47:26;;;;;;;36.45;5.85;;;;;;;;;;5036085;28;20387;-94
2023/01/01 14:49:52;;;;;;;38.35;5.45;;;;;;;;;;5036246;28;20024;-96
2023/01/01 14:52:22;;;;;;;40.22;6.95;;;;;;;;;;5035975;28;20121;-96
2023/01/01 14:54:48;;;;;;;46.45;5.72;;;;;;;;;;5036368;28;20028;-95
2023/01/01 14:57:15;;;;;;;44.78;7.07;;;;;;;;;;5036556;28;20013;-95
2023/01/01 14:59:46;;;;;;;53.15;7.18;;;;;;;;;;5036645;28;20041;-94
2023/01/01 15:02:13;;;;;;;36.05;7.20;;;;;;;;;;5035711;28;20020;-96
2023/01/01 15:04:38;;;;;;;35.88;6.00;;;;;;;;;;5036198;28;20017;-96
2023/01/01 15:07:04;;;;;;;37.85;6.35;;;;;;;;;;5036571;28;20115;-95
2023/01/01 15:09:30;;;;;;;36.97;5.10;;;;;;;;;;5036806;28;20021;-96
2023/01/01 15:11:56;;;;;;;49.42;7.50;;;;;;;;;;5036129;28;20133;-96
2023/01/01 15:14:27;;;;;;;43.97;5.72;;;;;;;;;;5036227;28;20048;-95
2023/01/01 15:17:00;;;;;;;35.17;5.40;;;;;;;;;;5036288;28;20089;-96
2023/01/01 15:19:25;;;;;;;51.05;7.30;;;;;;;;;;5036664;28;20021;-95
2023/01/01 15:21:51;;;;;;;40.83;6.22;;;;;;;;;;5036796;28;20467;-95
2023/01/01 15:24:20;;;;;;;49.55;6.93;;;;;;;;;;5036815;28;20021;-96
2023/01/01 15:26:56;;;;;;;48.67;7.43;;;;;;;;;;5037035;28;20374;-96
2023/01/01 15:29:25;;;;;;;45.08;6.10;;;;;;;;;;5036769;28;20052;-96